sensor_id;sensor_type;location;lat;lon;timestamp;temperature;humidity
23116;DHT22;11727;52.134;5.052;2022-11-15T00:00:51;7.50;99.90
23116;DHT22;11727;52.134;5.052;2022-11-15T00:03:17;7.50;99.90
23116;DHT22;11727;52.134;5.052;2022-11-15T00:05:43;7.50;99.90
23116;DHT22;11727;52.134;5.052;2022-11-15T00:08:09;7.50;99.90
23116;DHT22;11727;52.134;5.052;2022-11-15T00:10:36;7.50;99.90
23116;DHT22;11727;52.134;5.052;2022-11-15T00:13:09;7.60;99.90
23116;DHT22;11727;52.134;5.052;2022-11-15T00:15:36;7.60;99.90
23116;DHT22;11727;52.134;5.052;2022-11-15T00:18:03;7.60;99.90
23116;DHT22;11727;52.134;5.052;2022-11-15T00:20:28;7.60;99.90
23116;DHT22;11727;52.134;5.052;2022-11-15T00:22:55;7.60;99.90
23116;DHT22;11727;52.134;5.052;2022-11-15T00:25:20;7.60;99.90
23116;DHT22;11727;52.134;5.052;2022-11-15T00:27:46;7.60;99.90
23116;DHT22;11727;52.134;5.052;2022-11-15T00:30:12;7.60;99.90
23116;DHT22;11727;52.134;5.052;2022-11-15T00:32:37;7.60;99.90
23116;DHT22;11727;52.134;5.052;2022-11-15T00:35:03;7.60;99.90
23116;DHT22;11727;52.134;5.052;2022-11-15T00:37:29;7.60;99.90
23116;DHT22;11727;52.134;5.052;2022-11-15T00:39:54;7.60;99.90
23116;DHT22;11727;52.134;5.052;2022-11-15T00:42:20;7.70;99.90
23116;DHT22;11727;52.134;5.052;2022-11-15T00:44:45;7.70;99.90
23116;DHT22;11727;52.134;5.052;2022-11-15T00:47:11;7.70;99.90
23116;DHT22;11727;52.134;5.052;2022-11-15T00:49:37;7.70;99.90
23116;DHT22;11727;52.134;5.052;2022-11-15T00:52:02;7.70;99.90
23116;DHT22;11727;52.134;5.052;2022-11-15T00:54:28;7.70;99.90
23116;DHT22;11727;52.134;5.052;2022-11-15T00:56:53;7.70;99.90
23116;DHT22;11727;52.134;5.052;2022-11-15T00:59:19;7.80;99.90
23116;DHT22;11727;52.134;5.052;2022-11-15T01:01:45;7.80;99.90
23116;DHT22;11727;52.134;5.052;2022-11-15T01:04:10;7.80;99.90
23116;DHT22;11727;52.134;5.052;2022-11-15T01:06:36;7.80;99.90
23116;DHT22;11727;52.134;5.052;2022-11-15T01:09:01;7.80;99.90
23116;DHT22;11727;52.134;5.052;2022-11-15T01:11:27;7.80;99.90
23116;DHT22;11727;52.134;5.052;2022-11-15T01:13:52;7.80;99.90
23116;DHT22;11727;52.134;5.052;2022-11-15T01:16:19;7.90;99.90
23116;DHT22;11727;52.134;5.052;2022-11-15T01:18:45;7.90;99.90
23116;DHT22;11727;52.134;5.052;2022-11-15T01:21:16;7.90;99.90
23116;DHT22;11727;52.134;5.052;2022-11-15T01:23:42;8.00;99.90
23116;DHT22;11727;52.134;5.052;2022-11-15T01:26:12;8.00;99.90
23116;DHT22;11727;52.134;5.052;2022-11-15T01:28:39;8.00;99.90
23116;DHT22;11727;52.134;5.052;2022-11-15T01:31:16;8.00;99.90
23116;DHT22;11727;52.134;5.052;2022-11-15T01:33:42;8.00;99.90
23116;DHT22;11727;52.134;5.052;2022-11-15T01:36:12;8.10;99.90
23116;DHT22;11727;52.134;5.052;2022-11-15T01:38:38;8.10;99.90
23116;DHT22;11727;52.134;5.052;2022-11-15T01:41:04;8.10;99.90
23116;DHT22;11727;52.134;5.052;2022-11-15T01:43:35;8.10;99.90
23116;DHT22;11727;52.134;5.052;2022-11-15T01:48:51;8.20;99.90
23116;DHT22;11727;52.134;5.052;2022-11-15T01:51:19;8.20;99.90
23116;DHT22;11727;52.134;5.052;2022-11-15T01:53:47;8.30;99.90
23116;DHT22;11727;52.134;5.052;2022-11-15T01:56:18;8.30;99.90
23116;DHT22;11727;52.134;5.052;2022-11-15T01:58:45;8.30;99.90
23116;DHT22;11727;52.134;5.052;2022-11-15T02:01:13;8.30;99.90
23116;DHT22;11727;52.134;5.052;2022-11-15T02:03:55;8.40;99.90
23116;DHT22;11727;52.134;5.052;2022-11-15T02:06:22;8.40;99.90
23116;DHT22;11727;52.134;5.052;2022-11-15T02:08:49;8.40;99.90
23116;DHT22;11727;52.134;5.052;2022-11-15T02:11:15;8.40;99.90
23116;DHT22;11727;52.134;5.052;2022-11-15T02:13:41;8.50;99.90
23116;DHT22;11727;52.134;5.052;2022-11-15T02:27:53;8.60;99.90
23116;DHT22;11727;52.134;5.052;2022-11-15T02:36:12;8.70;99.90
23116;DHT22;11727;52.134;5.052;2022-11-15T02:39:00;8.70;99.90
23116;DHT22;11727;52.134;5.052;2022-11-15T02:41:42;8.70;99.90
23116;DHT22;11727;52.134;5.052;2022-11-15T02:44:32;8.80;99.90
23116;DHT22;11727;52.134;5.052;2022-11-15T02:47:01;8.80;99.90
23116;DHT22;11727;52.134;5.052;2022-11-15T02:49:46;8.90;99.90
23116;DHT22;11727;52.134;5.052;2022-11-15T02:52:23;8.90;99.90
23116;DHT22;11727;52.134;5.052;2022-11-15T02:54:54;9.00;99.90
23116;DHT22;11727;52.134;5.052;2022-11-15T02:57:31;9.00;99.90
23116;DHT22;11727;52.134;5.052;2022-11-15T03:00:07;9.10;99.90
23116;DHT22;11727;52.134;5.052;2022-11-15T03:11:21;9.30;99.90
23116;DHT22;11727;52.134;5.052;2022-11-15T03:17:11;9.30;99.90
23116;DHT22;11727;52.134;5.052;2022-11-15T03:19:46;9.40;99.90
23116;DHT22;11727;52.134;5.052;2022-11-15T03:22:16;9.40;99.90
23116;DHT22;11727;52.134;5.052;2022-11-15T03:24:45;9.40;99.90
23116;DHT22;11727;52.134;5.052;2022-11-15T03:27:15;9.50;99.90
23116;DHT22;11727;52.134;5.052;2022-11-15T03:29:50;9.50;99.90
23116;DHT22;11727;52.134;5.052;2022-11-15T03:32:23;9.60;99.90
23116;DHT22;11727;52.134;5.052;2022-11-15T03:35:12;9.60;99.90
23116;DHT22;11727;52.134;5.052;2022-11-15T03:37:46;9.60;99.90
23116;DHT22;11727;52.134;5.052;2022-11-15T03:40:13;9.70;99.90
23116;DHT22;11727;52.134;5.052;2022-11-15T03:45:17;9.70;99.90
23116;DHT22;11727;52.134;5.052;2022-11-15T03:47:59;9.70;99.90
23116;DHT22;11727;52.134;5.052;2022-11-15T03:50:27;9.80;99.90
23116;DHT22;11727;52.134;5.052;2022-11-15T03:52:54;9.80;99.90
23116;DHT22;11727;52.134;5.052;2022-11-15T03:55:21;9.80;99.90
23116;DHT22;11727;52.134;5.052;2022-11-15T03:57:49;9.80;99.90
23116;DHT22;11727;52.134;5.052;2022-11-15T04:00:15;9.90;99.90
23116;DHT22;11727;52.134;5.052;2022-11-15T04:02:42;9.90;99.90
23116;DHT22;11727;52.134;5.052;2022-11-15T04:05:08;9.90;99.90
23116;DHT22;11727;52.134;5.052;2022-11-15T04:07:34;10.00;99.90
23116;DHT22;11727;52.134;5.052;2022-11-15T04:09:59;10.00;99.90
23116;DHT22;11727;52.134;5.052;2022-11-15T04:12:31;10.00;99.90
23116;DHT22;11727;52.134;5.052;2022-11-15T04:15:08;10.00;99.90
23116;DHT22;11727;52.134;5.052;2022-11-15T04:20:07;10.00;99.90
23116;DHT22;11727;52.134;5.052;2022-11-15T04:22:54;10.10;99.90
23116;DHT22;11727;52.134;5.052;2022-11-15T04:25:38;10.10;99.90
23116;DHT22;11727;52.134;5.052;2022-11-15T04:28:04;10.10;99.90
23116;DHT22;11727;52.134;5.052;2022-11-15T04:30:29;10.10;99.90
23116;DHT22;11727;52.134;5.052;2022-11-15T04:32:55;10.20;99.90
23116;DHT22;11727;52.134;5.052;2022-11-15T04:35:20;10.20;99.90
23116;DHT22;11727;52.134;5.052;2022-11-15T04:37:46;10.20;99.90
23116;DHT22;11727;52.134;5.052;2022-11-15T04:40:12;10.20;99.90
23116;DHT22;11727;52.134;5.052;2022-11-15T04:42:37;10.20;99.90
23116;DHT22;11727;52.134;5.052;2022-11-15T04:45:03;10.30;99.90
23116;DHT22;11727;52.134;5.052;2022-11-15T04:47:28;10.30;99.90
23116;DHT22;11727;52.134;5.052;2022-11-15T04:49:54;10.30;99.90
23116;DHT22;11727;52.134;5.052;2022-11-15T04:52:20;10.30;99.90
23116;DHT22;11727;52.134;5.052;2022-11-15T04:54:46;10.40;99.90
23116;DHT22;11727;52.134;5.052;2022-11-15T04:57:11;10.40;99.90
23116;DHT22;11727;52.134;5.052;2022-11-15T04:59:37;10.40;99.90
23116;DHT22;11727;52.134;5.052;2022-11-15T05:02:02;10.40;99.90
23116;DHT22;11727;52.134;5.052;2022-11-15T05:04:28;10.50;99.90
23116;DHT22;11727;52.134;5.052;2022-11-15T05:06:53;10.40;99.90
23116;DHT22;11727;52.134;5.052;2022-11-15T05:09:20;10.50;99.90
23116;DHT22;11727;52.134;5.052;2022-11-15T05:11:46;10.50;99.90
23116;DHT22;11727;52.134;5.052;2022-11-15T05:14:12;10.50;99.90
23116;DHT22;11727;52.134;5.052;2022-11-15T05:16:38;10.60;99.90
23116;DHT22;11727;52.134;5.052;2022-11-15T05:19:04;10.60;99.90
23116;DHT22;11727;52.134;5.052;2022-11-15T05:21:30;10.60;99.90
23116;DHT22;11727;52.134;5.052;2022-11-15T05:23:56;10.60;99.90
23116;DHT22;11727;52.134;5.052;2022-11-15T05:26:22;10.70;99.90
23116;DHT22;11727;52.134;5.052;2022-11-15T05:28:56;10.70;99.90
23116;DHT22;11727;52.134;5.052;2022-11-15T05:31:22;10.70;99.90
23116;DHT22;11727;52.134;5.052;2022-11-15T05:33:49;10.80;99.90
23116;DHT22;11727;52.134;5.052;2022-11-15T05:36:37;10.80;99.90
23116;DHT22;11727;52.134;5.052;2022-11-15T05:39:05;10.80;99.90
23116;DHT22;11727;52.134;5.052;2022-11-15T05:41:46;10.80;99.90
23116;DHT22;11727;52.134;5.052;2022-11-15T05:44:14;10.80;99.90
23116;DHT22;11727;52.134;5.052;2022-11-15T05:46:43;10.90;99.90
23116;DHT22;11727;52.134;5.052;2022-11-15T05:49:13;10.80;99.90
23116;DHT22;11727;52.134;5.052;2022-11-15T05:51:41;10.80;99.90
23116;DHT22;11727;52.134;5.052;2022-11-15T05:54:07;10.90;99.90
23116;DHT22;11727;52.134;5.052;2022-11-15T05:56:33;10.90;99.90
23116;DHT22;11727;52.134;5.052;2022-11-15T05:58:59;10.90;99.90
23116;DHT22;11727;52.134;5.052;2022-11-15T06:01:25;10.90;99.90
23116;DHT22;11727;52.134;5.052;2022-11-15T06:03:51;10.90;99.90
23116;DHT22;11727;52.134;5.052;2022-11-15T06:06:17;10.90;99.90
23116;DHT22;11727;52.134;5.052;2022-11-15T06:08:42;10.90;99.90
23116;DHT22;11727;52.134;5.052;2022-11-15T06:11:08;10.90;99.90
23116;DHT22;11727;52.134;5.052;2022-11-15T06:13:34;10.90;99.90
23116;DHT22;11727;52.134;5.052;2022-11-15T06:16:00;10.90;99.90
23116;DHT22;11727;52.134;5.052;2022-11-15T06:18:26;10.90;99.90
23116;DHT22;11727;52.134;5.052;2022-11-15T06:20:52;10.90;99.90
23116;DHT22;11727;52.134;5.052;2022-11-15T06:23:17;11.00;99.90
23116;DHT22;11727;52.134;5.052;2022-11-15T06:25:43;11.00;99.90
23116;DHT22;11727;52.134;5.052;2022-11-15T06:28:09;11.00;99.90
23116;DHT22;11727;52.134;5.052;2022-11-15T06:30:34;11.00;99.90
23116;DHT22;11727;52.134;5.052;2022-11-15T06:33:02;11.00;99.90
23116;DHT22;11727;52.134;5.052;2022-11-15T06:35:28;11.00;99.90
23116;DHT22;11727;52.134;5.052;2022-11-15T06:37:54;11.00;99.90
23116;DHT22;11727;52.134;5.052;2022-11-15T06:40:20;11.00;99.90
23116;DHT22;11727;52.134;5.052;2022-11-15T06:42:45;11.00;99.90
23116;DHT22;11727;52.134;5.052;2022-11-15T06:45:11;11.10;99.90
23116;DHT22;11727;52.134;5.052;2022-11-15T06:47:47;11.10;99.90
23116;DHT22;11727;52.134;5.052;2022-11-15T06:50:12;11.10;99.90
23116;DHT22;11727;52.134;5.052;2022-11-15T06:52:38;11.10;99.90
23116;DHT22;11727;52.134;5.052;2022-11-15T06:55:04;11.10;99.90
23116;DHT22;11727;52.134;5.052;2022-11-15T06:57:30;11.10;99.90
23116;DHT22;11727;52.134;5.052;2022-11-15T06:59:55;11.10;99.90
23116;DHT22;11727;52.134;5.052;2022-11-15T07:02:21;11.10;99.90
23116;DHT22;11727;52.134;5.052;2022-11-15T07:04:46;11.10;99.90
23116;DHT22;11727;52.134;5.052;2022-11-15T07:07:12;11.10;99.90
23116;DHT22;11727;52.134;5.052;2022-11-15T07:09:37;11.10;99.90
23116;DHT22;11727;52.134;5.052;2022-11-15T07:12:03;11.00;99.90
23116;DHT22;11727;52.134;5.052;2022-11-15T07:14:29;11.00;99.90
23116;DHT22;11727;52.134;5.052;2022-11-15T07:16:54;11.10;99.90
23116;DHT22;11727;52.134;5.052;2022-11-15T07:19:20;11.00;99.90
23116;DHT22;11727;52.134;5.052;2022-11-15T07:21:45;11.00;99.90
23116;DHT22;11727;52.134;5.052;2022-11-15T07:24:11;11.00;99.90
23116;DHT22;11727;52.134;5.052;2022-11-15T07:26:37;11.00;99.90
23116;DHT22;11727;52.134;5.052;2022-11-15T07:29:03;11.00;99.90
23116;DHT22;11727;52.134;5.052;2022-11-15T07:31:28;11.00;99.90
23116;DHT22;11727;52.134;5.052;2022-11-15T07:33:54;10.90;99.90
23116;DHT22;11727;52.134;5.052;2022-11-15T07:36:19;10.90;99.90
23116;DHT22;11727;52.134;5.052;2022-11-15T07:38:45;10.90;99.90
23116;DHT22;11727;52.134;5.052;2022-11-15T07:41:10;10.90;99.90
23116;DHT22;11727;52.134;5.052;2022-11-15T07:43:36;10.90;99.90
23116;DHT22;11727;52.134;5.052;2022-11-15T07:46:06;10.90;99.90
23116;DHT22;11727;52.134;5.052;2022-11-15T07:48:35;10.90;99.90
23116;DHT22;11727;52.134;5.052;2022-11-15T07:51:00;10.90;99.90
23116;DHT22;11727;52.134;5.052;2022-11-15T07:53:26;10.90;99.90
23116;DHT22;11727;52.134;5.052;2022-11-15T07:55:51;10.90;99.90
23116;DHT22;11727;52.134;5.052;2022-11-15T07:58:19;11.00;99.90
23116;DHT22;11727;52.134;5.052;2022-11-15T08:00:45;11.00;99.90
23116;DHT22;11727;52.134;5.052;2022-11-15T08:03:12;11.00;99.90
23116;DHT22;11727;52.134;5.052;2022-11-15T08:05:40;11.00;99.90
23116;DHT22;11727;52.134;5.052;2022-11-15T08:08:07;11.00;99.90
23116;DHT22;11727;52.134;5.052;2022-11-15T08:10:33;11.00;99.90
23116;DHT22;11727;52.134;5.052;2022-11-15T08:13:05;11.10;99.90
23116;DHT22;11727;52.134;5.052;2022-11-15T08:15:31;11.10;99.90
23116;DHT22;11727;52.134;5.052;2022-11-15T08:17:59;11.10;99.90
23116;DHT22;11727;52.134;5.052;2022-11-15T08:20:26;11.10;99.90
23116;DHT22;11727;52.134;5.052;2022-11-15T08:22:59;11.10;99.90
23116;DHT22;11727;52.134;5.052;2022-11-15T08:25:26;11.10;99.90
23116;DHT22;11727;52.134;5.052;2022-11-15T08:27:57;11.10;99.90
23116;DHT22;11727;52.134;5.052;2022-11-15T08:30:23;11.10;99.90
23116;DHT22;11727;52.134;5.052;2022-11-15T08:32:50;11.10;99.90
23116;DHT22;11727;52.134;5.052;2022-11-15T08:35:17;11.10;99.90
23116;DHT22;11727;52.134;5.052;2022-11-15T08:37:42;11.20;99.90
23116;DHT22;11727;52.134;5.052;2022-11-15T08:40:08;11.20;99.90
23116;DHT22;11727;52.134;5.052;2022-11-15T08:42:35;11.20;99.90
23116;DHT22;11727;52.134;5.052;2022-11-15T08:45:01;11.20;99.90
23116;DHT22;11727;52.134;5.052;2022-11-15T08:47:27;11.20;99.90
23116;DHT22;11727;52.134;5.052;2022-11-15T08:49:52;11.30;99.90
23116;DHT22;11727;52.134;5.052;2022-11-15T08:52:18;11.30;99.90
23116;DHT22;11727;52.134;5.052;2022-11-15T08:54:44;11.30;99.90
23116;DHT22;11727;52.134;5.052;2022-11-15T08:57:09;11.40;99.90
23116;DHT22;11727;52.134;5.052;2022-11-15T08:59:36;11.40;99.90
23116;DHT22;11727;52.134;5.052;2022-11-15T09:02:02;11.40;99.90
23116;DHT22;11727;52.134;5.052;2022-11-15T09:04:27;11.50;99.90
23116;DHT22;11727;52.134;5.052;2022-11-15T09:06:53;11.50;99.90
23116;DHT22;11727;52.134;5.052;2022-11-15T09:09:19;11.50;99.90
23116;DHT22;11727;52.134;5.052;2022-11-15T09:11:44;11.60;99.90
23116;DHT22;11727;52.134;5.052;2022-11-15T09:14:11;11.60;99.90
23116;DHT22;11727;52.134;5.052;2022-11-15T09:16:37;11.60;99.90
23116;DHT22;11727;52.134;5.052;2022-11-15T09:19:03;11.60;99.90
23116;DHT22;11727;52.134;5.052;2022-11-15T09:21:29;11.60;99.90
23116;DHT22;11727;52.134;5.052;2022-11-15T09:23:55;11.60;99.90
23116;DHT22;11727;52.134;5.052;2022-11-15T09:26:21;11.60;99.90
23116;DHT22;11727;52.134;5.052;2022-11-15T09:28:46;11.60;99.90
23116;DHT22;11727;52.134;5.052;2022-11-15T09:31:12;11.60;99.90
23116;DHT22;11727;52.134;5.052;2022-11-15T09:33:37;11.60;99.90
23116;DHT22;11727;52.134;5.052;2022-11-15T09:36:05;11.60;99.90
23116;DHT22;11727;52.134;5.052;2022-11-15T09:38:32;11.60;99.90
23116;DHT22;11727;52.134;5.052;2022-11-15T09:41:22;11.60;99.90
23116;DHT22;11727;52.134;5.052;2022-11-15T09:46:53;11.70;99.90
23116;DHT22;11727;52.134;5.052;2022-11-15T09:49:22;11.70;99.90
23116;DHT22;11727;52.134;5.052;2022-11-15T09:51:50;11.80;99.90
23116;DHT22;11727;52.134;5.052;2022-11-15T09:54:34;11.80;99.90
23116;DHT22;11727;52.134;5.052;2022-11-15T10:02:53;11.80;99.90
23116;DHT22;11727;52.134;5.052;2022-11-15T10:05:23;11.80;99.90
23116;DHT22;11727;52.134;5.052;2022-11-15T10:10:45;11.80;99.90
23116;DHT22;11727;52.134;5.052;2022-11-15T10:13:32;11.80;99.90
23116;DHT22;11727;52.134;5.052;2022-11-15T10:22:38;12.00;99.90
23116;DHT22;11727;52.134;5.052;2022-11-15T10:25:16;12.00;99.90
23116;DHT22;11727;52.134;5.052;2022-11-15T10:27:44;12.00;99.90
23116;DHT22;11727;52.134;5.052;2022-11-15T10:30:14;12.00;99.90
23116;DHT22;11727;52.134;5.052;2022-11-15T10:32:42;12.00;99.90
23116;DHT22;11727;52.134;5.052;2022-11-15T10:35:28;12.00;99.90
23116;DHT22;11727;52.134;5.052;2022-11-15T10:38:20;12.00;99.90
23116;DHT22;11727;52.134;5.052;2022-11-15T10:40:46;12.00;99.90
23116;DHT22;11727;52.134;5.052;2022-11-15T10:43:18;12.00;99.90
23116;DHT22;11727;52.134;5.052;2022-11-15T10:45:45;12.10;99.90
23116;DHT22;11727;52.134;5.052;2022-11-15T10:50:44;12.10;99.90
23116;DHT22;11727;52.134;5.052;2022-11-15T10:53:26;12.10;99.90
23116;DHT22;11727;52.134;5.052;2022-11-15T10:55:55;12.10;99.90
23116;DHT22;11727;52.134;5.052;2022-11-15T10:58:38;12.10;99.90
23116;DHT22;11727;52.134;5.052;2022-11-15T11:04:19;12.20;99.90
23116;DHT22;11727;52.134;5.052;2022-11-15T11:06:53;12.20;99.90
23116;DHT22;11727;52.134;5.052;2022-11-15T11:09:28;12.20;99.90
23116;DHT22;11727;52.134;5.052;2022-11-15T11:11:55;12.20;99.90
23116;DHT22;11727;52.134;5.052;2022-11-15T11:14:29;12.30;99.90
23116;DHT22;11727;52.134;5.052;2022-11-15T11:17:23;12.30;99.90
23116;DHT22;11727;52.134;5.052;2022-11-15T11:23:21;12.40;99.90
23116;DHT22;11727;52.134;5.052;2022-11-15T11:37:33;12.50;99.90
23116;DHT22;11727;52.134;5.052;2022-11-15T11:43:15;12.50;99.90
23116;DHT22;11727;52.134;5.052;2022-11-15T11:48:45;12.60;99.90
23116;DHT22;11727;52.134;5.052;2022-11-15T11:51:24;12.60;99.90
23116;DHT22;11727;52.134;5.052;2022-11-15T11:53:57;12.70;99.90
23116;DHT22;11727;52.134;5.052;2022-11-15T11:56:29;12.70;99.90
23116;DHT22;11727;52.134;5.052;2022-11-15T11:59:04;12.70;99.90
23116;DHT22;11727;52.134;5.052;2022-11-15T12:01:34;12.70;99.90
23116;DHT22;11727;52.134;5.052;2022-11-15T12:04:23;12.70;99.90
23116;DHT22;11727;52.134;5.052;2022-11-15T12:12:23;12.80;99.90
23116;DHT22;11727;52.134;5.052;2022-11-15T12:17:29;12.80;99.90
23116;DHT22;11727;52.134;5.052;2022-11-15T12:20:02;12.80;99.90
23116;DHT22;11727;52.134;5.052;2022-11-15T12:22:38;12.90;99.90
23116;DHT22;11727;52.134;5.052;2022-11-15T12:25:27;12.90;99.90
23116;DHT22;11727;52.134;5.052;2022-11-15T12:28:17;12.90;99.90
23116;DHT22;11727;52.134;5.052;2022-11-15T12:30:50;12.90;99.90
23116;DHT22;11727;52.134;5.052;2022-11-15T12:36:04;12.90;99.90
23116;DHT22;11727;52.134;5.052;2022-11-15T12:41:24;13.00;99.90
23116;DHT22;11727;52.134;5.052;2022-11-15T12:43:50;13.00;99.90
23116;DHT22;11727;52.134;5.052;2022-11-15T13:04:46;13.20;99.90
23116;DHT22;11727;52.134;5.052;2022-11-15T13:17:46;13.10;99.90
23116;DHT22;11727;52.134;5.052;2022-11-15T13:20:19;13.10;99.90
23116;DHT22;11727;52.134;5.052;2022-11-15T13:22:48;13.10;99.90
23116;DHT22;11727;52.134;5.052;2022-11-15T13:27:48;13.10;99.90
23116;DHT22;11727;52.134;5.052;2022-11-15T13:30:20;13.00;99.90
23116;DHT22;11727;52.134;5.052;2022-11-15T13:32:47;13.00;99.90
23116;DHT22;11727;52.134;5.052;2022-11-15T13:35:23;13.00;99.90
23116;DHT22;11727;52.134;5.052;2022-11-15T13:37:50;12.90;99.90
23116;DHT22;11727;52.134;5.052;2022-11-15T13:40:19;12.90;99.90
23116;DHT22;11727;52.134;5.052;2022-11-15T13:42:45;12.90;99.90
23116;DHT22;11727;52.134;5.052;2022-11-15T13:45:15;12.90;99.90
23116;DHT22;11727;52.134;5.052;2022-11-15T13:47:40;12.80;99.90
23116;DHT22;11727;52.134;5.052;2022-11-15T13:50:10;12.80;99.90
23116;DHT22;11727;52.134;5.052;2022-11-15T13:52:37;12.70;99.90
23116;DHT22;11727;52.134;5.052;2022-11-15T13:55:12;12.70;99.90
23116;DHT22;11727;52.134;5.052;2022-11-15T13:57:41;12.70;99.90
23116;DHT22;11727;52.134;5.052;2022-11-15T14:00:29;12.70;99.90
23116;DHT22;11727;52.134;5.052;2022-11-15T14:02:56;12.70;99.90
23116;DHT22;11727;52.134;5.052;2022-11-15T14:05:24;12.70;99.90
23116;DHT22;11727;52.134;5.052;2022-11-15T14:10:30;12.70;99.90
23116;DHT22;11727;52.134;5.052;2022-11-15T14:12:57;12.60;99.90
23116;DHT22;11727;52.134;5.052;2022-11-15T14:17:57;12.60;99.90
23116;DHT22;11727;52.134;5.052;2022-11-15T14:20:27;12.60;99.90
23116;DHT22;11727;52.134;5.052;2022-11-15T14:22:55;12.60;99.90
23116;DHT22;11727;52.134;5.052;2022-11-15T14:25:32;12.50;99.90
23116;DHT22;11727;52.134;5.052;2022-11-15T14:30:33;12.50;99.90
23116;DHT22;11727;52.134;5.052;2022-11-15T14:32:59;12.50;99.90
23116;DHT22;11727;52.134;5.052;2022-11-15T14:35:24;12.40;99.90
23116;DHT22;11727;52.134;5.052;2022-11-15T14:37:50;12.40;99.90
23116;DHT22;11727;52.134;5.052;2022-11-15T14:40:21;12.40;99.90
23116;DHT22;11727;52.134;5.052;2022-11-15T14:42:48;12.40;99.90
23116;DHT22;11727;52.134;5.052;2022-11-15T14:45:15;12.40;99.90
23116;DHT22;11727;52.134;5.052;2022-11-15T14:47:41;12.30;99.90
23116;DHT22;11727;52.134;5.052;2022-11-15T14:50:17;12.30;99.90
23116;DHT22;11727;52.134;5.052;2022-11-15T14:52:44;12.30;99.90
23116;DHT22;11727;52.134;5.052;2022-11-15T14:55:23;12.30;99.90
23116;DHT22;11727;52.134;5.052;2022-11-15T14:57:49;12.30;99.90
23116;DHT22;11727;52.134;5.052;2022-11-15T15:00:16;12.30;99.90
23116;DHT22;11727;52.134;5.052;2022-11-15T15:02:43;12.30;99.90
23116;DHT22;11727;52.134;5.052;2022-11-15T15:05:19;12.30;99.90
23116;DHT22;11727;52.134;5.052;2022-11-15T15:07:45;12.30;99.90
23116;DHT22;11727;52.134;5.052;2022-11-15T15:10:12;12.30;99.90
23116;DHT22;11727;52.134;5.052;2022-11-15T15:12:38;12.20;99.90
23116;DHT22;11727;52.134;5.052;2022-11-15T15:15:04;12.20;99.90
23116;DHT22;11727;52.134;5.052;2022-11-15T15:17:30;12.20;99.90
23116;DHT22;11727;52.134;5.052;2022-11-15T15:19:56;12.20;99.90
23116;DHT22;11727;52.134;5.052;2022-11-15T15:22:22;12.20;99.90
23116;DHT22;11727;52.134;5.052;2022-11-15T15:24:50;12.20;99.90
23116;DHT22;11727;52.134;5.052;2022-11-15T15:27:16;12.20;99.90
23116;DHT22;11727;52.134;5.052;2022-11-15T15:29:42;12.20;99.90
23116;DHT22;11727;52.134;5.052;2022-11-15T15:32:08;12.20;99.90
23116;DHT22;11727;52.134;5.052;2022-11-15T15:34:34;12.20;99.90
23116;DHT22;11727;52.134;5.052;2022-11-15T15:37:23;12.20;99.90
23116;DHT22;11727;52.134;5.052;2022-11-15T15:39:53;12.20;99.90
23116;DHT22;11727;52.134;5.052;2022-11-15T15:42:20;12.20;99.90
23116;DHT22;11727;52.134;5.052;2022-11-15T15:44:46;12.10;99.90
23116;DHT22;11727;52.134;5.052;2022-11-15T15:47:15;12.20;99.90
23116;DHT22;11727;52.134;5.052;2022-11-15T15:49:42;12.10;99.90
23116;DHT22;11727;52.134;5.052;2022-11-15T15:52:07;12.10;99.90
23116;DHT22;11727;52.134;5.052;2022-11-15T15:54:33;12.10;99.90
23116;DHT22;11727;52.134;5.052;2022-11-15T15:56:59;12.10;99.90
23116;DHT22;11727;52.134;5.052;2022-11-15T15:59:24;12.10;99.90
23116;DHT22;11727;52.134;5.052;2022-11-15T16:01:50;12.10;99.90
23116;DHT22;11727;52.134;5.052;2022-11-15T16:04:15;12.20;99.90
23116;DHT22;11727;52.134;5.052;2022-11-15T16:06:41;12.20;99.90
23116;DHT22;11727;52.134;5.052;2022-11-15T16:09:14;12.20;99.90
23116;DHT22;11727;52.134;5.052;2022-11-15T16:11:44;12.20;99.90
23116;DHT22;11727;52.134;5.052;2022-11-15T16:14:10;12.20;99.90
23116;DHT22;11727;52.134;5.052;2022-11-15T16:16:36;12.20;99.90
23116;DHT22;11727;52.134;5.052;2022-11-15T16:19:03;12.20;99.90
23116;DHT22;11727;52.134;5.052;2022-11-15T16:21:29;12.20;99.90
23116;DHT22;11727;52.134;5.052;2022-11-15T16:23:54;12.30;99.90
23116;DHT22;11727;52.134;5.052;2022-11-15T16:26:28;12.30;99.90
23116;DHT22;11727;52.134;5.052;2022-11-15T16:28:54;12.30;99.90
23116;DHT22;11727;52.134;5.052;2022-11-15T16:31:20;12.30;99.90
23116;DHT22;11727;52.134;5.052;2022-11-15T16:33:48;12.30;99.90
23116;DHT22;11727;52.134;5.052;2022-11-15T16:36:24;12.30;99.90
23116;DHT22;11727;52.134;5.052;2022-11-15T16:38:51;12.30;99.90
23116;DHT22;11727;52.134;5.052;2022-11-15T16:41:17;12.30;99.90
23116;DHT22;11727;52.134;5.052;2022-11-15T16:43:47;12.20;99.90
23116;DHT22;11727;52.134;5.052;2022-11-15T16:46:25;12.20;99.90
23116;DHT22;11727;52.134;5.052;2022-11-15T16:48:51;12.20;99.90
23116;DHT22;11727;52.134;5.052;2022-11-15T16:51:18;12.10;99.90
23116;DHT22;11727;52.134;5.052;2022-11-15T16:53:44;12.00;99.90
23116;DHT22;11727;52.134;5.052;2022-11-15T16:56:23;12.00;99.90
23116;DHT22;11727;52.134;5.052;2022-11-15T16:58:49;12.00;99.90
23116;DHT22;11727;52.134;5.052;2022-11-15T17:01:22;11.90;99.90
23116;DHT22;11727;52.134;5.052;2022-11-15T17:03:48;11.80;99.90
23116;DHT22;11727;52.134;5.052;2022-11-15T17:06:14;11.80;99.90
23116;DHT22;11727;52.134;5.052;2022-11-15T17:08:40;11.70;99.90
23116;DHT22;11727;52.134;5.052;2022-11-15T17:11:06;11.60;99.90
23116;DHT22;11727;52.134;5.052;2022-11-15T17:13:32;11.60;99.90
23116;DHT22;11727;52.134;5.052;2022-11-15T17:16:12;11.50;99.90
23116;DHT22;11727;52.134;5.052;2022-11-15T17:18:39;11.40;99.90
23116;DHT22;11727;52.134;5.052;2022-11-15T17:21:15;11.30;99.90
23116;DHT22;11727;52.134;5.052;2022-11-15T17:23:41;11.30;99.90
23116;DHT22;11727;52.134;5.052;2022-11-15T17:26:08;11.20;99.90
23116;DHT22;11727;52.134;5.052;2022-11-15T17:28:36;11.10;99.90
23116;DHT22;11727;52.134;5.052;2022-11-15T17:31:06;11.10;99.90
23116;DHT22;11727;52.134;5.052;2022-11-15T17:33:32;11.00;99.90
23116;DHT22;11727;52.134;5.052;2022-11-15T17:36:01;10.90;99.90
23116;DHT22;11727;52.134;5.052;2022-11-15T17:38:27;10.90;99.90
23116;DHT22;11727;52.134;5.052;2022-11-15T17:41:09;10.90;99.90
23116;DHT22;11727;52.134;5.052;2022-11-15T17:43:36;10.80;99.90
23116;DHT22;11727;52.134;5.052;2022-11-15T17:46:07;10.70;99.90
23116;DHT22;11727;52.134;5.052;2022-11-15T17:48:33;10.70;99.90
23116;DHT22;11727;52.134;5.052;2022-11-15T17:51:04;10.70;99.90
23116;DHT22;11727;52.134;5.052;2022-11-15T17:53:35;10.60;99.90
23116;DHT22;11727;52.134;5.052;2022-11-15T17:56:06;10.60;99.90
23116;DHT22;11727;52.134;5.052;2022-11-15T17:58:33;10.60;99.90
23116;DHT22;11727;52.134;5.052;2022-11-15T18:03:41;10.60;99.90